createdAt,value
2018-07-07T00:00:24.393Z,2.10
2018-07-07T00:02:53.068Z,2.17
2018-07-07T00:05:21.253Z,2.43
2018-07-07T00:07:49.696Z,2.07
2018-07-07T00:10:18.218Z,2.27
2018-07-07T00:12:46.664Z,2.30
2018-07-07T00:15:18.881Z,2.10
2018-07-07T00:17:47.840Z,2.83
2018-07-07T00:20:16.535Z,2.77
2018-07-07T00:22:45.432Z,2.40
2018-07-07T00:25:16.477Z,2.50
2018-07-07T00:27:45.847Z,2.37
2018-07-07T00:30:14.301Z,2.50
2018-07-07T00:32:42.743Z,2.17
2018-07-07T00:35:11.351Z,2.77
2018-07-07T00:37:39.902Z,2.80
2018-07-07T00:40:09.267Z,2.40
2018-07-07T00:42:38.007Z,2.27
2018-07-07T00:45:06.449Z,2.87
2018-07-07T00:47:34.958Z,2.50
2018-07-07T00:50:03.505Z,2.50
2018-07-07T00:52:32.006Z,2.80
2018-07-07T00:55:00.444Z,2.80
2018-07-07T00:57:28.947Z,2.70
2018-07-07T00:59:57.442Z,3.10
2018-07-07T01:02:25.986Z,2.40
2018-07-07T01:04:55.335Z,2.80
2018-07-07T01:07:24.447Z,2.33
2018-07-07T01:09:52.992Z,2.40
2018-07-07T01:12:21.454Z,2.87
2018-07-07T01:14:49.976Z,2.40
2018-07-07T01:17:18.436Z,2.60
2018-07-07T01:19:46.822Z,2.20
2018-07-07T01:22:15.510Z,2.63
2018-07-07T01:24:44.278Z,2.90
2018-07-07T01:27:13.091Z,2.40
2018-07-07T01:29:42.177Z,2.47
2018-07-07T01:32:10.959Z,2.60
2018-07-07T01:34:39.440Z,2.83
2018-07-07T01:37:08.062Z,2.50
2018-07-07T01:39:36.610Z,2.40
2018-07-07T01:42:05.393Z,2.30
2018-07-07T01:44:33.813Z,2.30
2018-07-07T01:47:02.225Z,2.60
2018-07-07T01:49:30.739Z,2.80
2018-07-07T01:51:59.242Z,3.07
2018-07-07T01:54:27.806Z,2.73
2018-07-07T01:56:56.230Z,2.67
2018-07-07T01:59:24.728Z,2.53
2018-07-07T02:01:53.225Z,2.70
2018-07-07T02:04:21.790Z,2.70
2018-07-07T02:06:50.198Z,2.87
2018-07-07T02:09:18.638Z,2.40
2018-07-07T02:11:47.264Z,2.67
2018-07-07T02:14:15.567Z,2.60
2018-07-07T02:16:44.017Z,2.87
2018-07-07T02:19:12.510Z,2.90
2018-07-07T02:21:40.973Z,2.73
2018-07-07T02:24:09.388Z,2.93
2018-07-07T02:26:37.843Z,3.00
2018-07-07T02:29:06.241Z,3.20
2018-07-07T02:31:36.177Z,3.40
2018-07-07T02:34:04.689Z,3.80
2018-07-07T02:36:32.919Z,3.40
2018-07-07T02:39:01.321Z,3.37
2018-07-07T02:41:30.504Z,3.57
2018-07-07T02:43:59.012Z,3.10
2018-07-07T02:46:27.588Z,3.87
2018-07-07T02:48:56.045Z,3.23
2018-07-07T02:51:24.691Z,3.87
2018-07-07T02:53:53.148Z,4.07
2018-07-07T02:56:21.658Z,3.80
2018-07-07T02:58:50.104Z,3.47
2018-07-07T03:01:18.617Z,4.00
2018-07-07T03:03:47.037Z,3.73
2018-07-07T03:06:15.440Z,3.97
2018-07-07T03:08:43.937Z,3.83
2018-07-07T03:11:12.592Z,3.80
2018-07-07T03:13:41.125Z,3.60
2018-07-07T03:16:09.599Z,3.87
2018-07-07T03:18:38.081Z,3.70
2018-07-07T03:21:06.792Z,4.10
2018-07-07T03:23:35.219Z,4.27
2018-07-07T03:26:03.668Z,4.63
2018-07-07T03:28:32.278Z,4.43
2018-07-07T03:31:00.761Z,3.93
2018-07-07T03:33:28.983Z,3.80
2018-07-07T03:35:57.443Z,4.33
2018-07-07T03:38:25.923Z,3.80
2018-07-07T03:40:54.440Z,3.43
2018-07-07T03:43:22.941Z,3.33
2018-07-07T03:45:51.439Z,3.90
2018-07-07T03:48:20.904Z,3.63
2018-07-07T03:50:49.340Z,3.70
2018-07-07T03:53:17.518Z,4.37
2018-07-07T03:55:46.058Z,3.40
2018-07-07T03:58:14.544Z,3.50
2018-07-07T04:00:43.812Z,3.53
2018-07-07T04:03:12.339Z,3.70
2018-07-07T04:05:40.823Z,3.93
2018-07-07T04:08:09.320Z,3.77
2018-07-07T04:10:37.781Z,3.50
2018-07-07T04:13:06.764Z,3.57
2018-07-07T04:15:35.303Z,3.57
2018-07-07T04:18:03.730Z,3.90
2018-07-07T04:20:32.195Z,3.77
2018-07-07T04:23:00.718Z,3.80
2018-07-07T04:25:29.388Z,4.03
2018-07-07T04:27:57.985Z,3.67
2018-07-07T04:30:26.137Z,4.67
2018-07-07T04:32:54.653Z,4.30
2018-07-07T04:35:23.087Z,3.93
2018-07-07T04:37:51.513Z,3.90
2018-07-07T04:40:22.221Z,3.83
2018-07-07T04:42:50.637Z,3.83
2018-07-07T04:45:19.175Z,4.37
2018-07-07T04:47:47.397Z,3.97
2018-07-07T04:50:15.790Z,3.93
2018-07-07T04:52:44.313Z,4.27
2018-07-07T04:55:12.792Z,4.40
2018-07-07T04:57:41.265Z,4.27
2018-07-07T05:00:09.677Z,4.80
2018-07-07T05:02:38.367Z,4.30
2018-07-07T05:05:06.755Z,4.13
2018-07-07T05:07:35.297Z,4.20
2018-07-07T05:10:04.117Z,4.57
2018-07-07T05:12:32.798Z,4.80
2018-07-07T05:15:01.706Z,4.73
2018-07-07T05:17:30.117Z,4.30
2018-07-07T05:19:58.643Z,5.17
2018-07-07T05:22:27.191Z,4.10
2018-07-07T05:24:55.702Z,4.30
2018-07-07T05:27:24.453Z,4.60
2018-07-07T05:29:52.924Z,4.40
2018-07-07T05:32:21.530Z,4.20
2018-07-07T05:34:49.990Z,4.63
2018-07-07T05:37:18.818Z,3.70
2018-07-07T05:39:47.393Z,4.60
2018-07-07T05:42:15.976Z,3.60
2018-07-07T05:44:44.456Z,3.70
2018-07-07T05:47:12.933Z,4.20
2018-07-07T05:49:41.509Z,4.57
2018-07-07T05:52:09.962Z,4.10
2018-07-07T05:54:38.384Z,4.50
2018-07-07T05:57:06.874Z,3.50
2018-07-07T05:59:35.353Z,3.80
2018-07-07T06:02:03.795Z,3.80
2018-07-07T06:04:32.298Z,3.70
2018-07-07T06:07:00.573Z,4.70
2018-07-07T06:09:29.504Z,4.20
2018-07-07T06:11:57.995Z,3.20
2018-07-07T06:14:26.522Z,3.80
2018-07-07T06:16:54.982Z,3.00
2018-07-07T06:19:23.470Z,3.70
2018-07-07T06:21:51.949Z,3.30
2018-07-07T06:24:20.794Z,2.67
2018-07-07T06:26:49.283Z,3.47
2018-07-07T06:29:17.674Z,3.20
2018-07-07T06:31:46.105Z,3.90
2018-07-07T06:34:14.533Z,3.47
2018-07-07T06:36:43.052Z,3.23
2018-07-07T06:39:11.431Z,2.93
2018-07-07T06:41:39.594Z,2.90
2018-07-07T06:44:07.786Z,3.33
2018-07-07T06:46:37.755Z,3.17
2018-07-07T06:49:06.336Z,4.10
2018-07-07T06:51:34.809Z,3.57
2018-07-07T06:54:03.264Z,3.43
2018-07-07T06:56:31.854Z,3.33
2018-07-07T06:59:00.312Z,3.30
2018-07-07T07:01:35.219Z,3.60
2018-07-07T07:04:03.719Z,3.73
2018-07-07T07:06:32.183Z,3.40
2018-07-07T07:09:00.691Z,3.20
2018-07-07T07:11:29.237Z,2.87
2018-07-07T07:13:57.641Z,3.77
2018-07-07T07:16:25.880Z,3.30
2018-07-07T07:18:54.377Z,3.00
2018-07-07T07:21:22.670Z,2.90
2018-07-07T07:23:51.531Z,2.60
2018-07-07T07:26:20.104Z,2.97
2018-07-07T07:28:48.526Z,2.90
2018-07-07T07:31:16.998Z,2.70
2018-07-07T07:33:45.423Z,3.20
2018-07-07T07:36:14.155Z,2.53
2018-07-07T07:38:42.621Z,2.97
2018-07-07T07:41:11.289Z,2.73
2018-07-07T07:43:39.845Z,2.70
2018-07-07T07:46:08.369Z,2.67
2018-07-07T07:48:36.977Z,2.87
2018-07-07T07:51:05.433Z,2.50
2018-07-07T07:53:33.984Z,2.80
2018-07-07T07:56:02.573Z,2.40
2018-07-07T07:58:31.044Z,2.70
2018-07-07T08:00:59.661Z,3.00
2018-07-07T08:03:28.084Z,2.30
2018-07-07T08:05:56.563Z,3.07
2018-07-07T08:08:24.999Z,2.47
2018-07-07T08:10:53.477Z,2.40
2018-07-07T08:13:21.981Z,2.40
2018-07-07T08:15:50.447Z,2.57
2018-07-07T08:18:18.952Z,2.17
2018-07-07T08:20:47.538Z,2.40
2018-07-07T08:23:16.124Z,2.10
2018-07-07T08:25:44.686Z,2.33
2018-07-07T08:28:13.114Z,2.10
2018-07-07T08:30:41.688Z,1.90
2018-07-07T08:33:10.251Z,2.10
2018-07-07T08:35:38.850Z,2.00
2018-07-07T08:38:08.307Z,1.90
2018-07-07T08:40:37.947Z,2.60
2018-07-07T08:43:06.512Z,1.77
2018-07-07T08:45:35.016Z,2.13
2018-07-07T08:48:03.521Z,1.93
2018-07-07T08:50:31.978Z,1.90
2018-07-07T08:53:00.371Z,2.13
2018-07-07T08:55:28.793Z,1.90
2018-07-07T08:57:57.294Z,1.83
2018-07-07T09:00:25.793Z,1.73
2018-07-07T09:02:54.229Z,1.70
2018-07-07T09:05:22.753Z,1.83
2018-07-07T09:07:51.287Z,2.40
2018-07-07T09:10:19.835Z,1.70
2018-07-07T09:12:48.463Z,2.20
2018-07-07T09:15:16.890Z,1.87
2018-07-07T09:17:45.325Z,2.47
2018-07-07T09:20:13.922Z,2.50
2018-07-07T09:22:42.407Z,2.27
2018-07-07T09:25:10.853Z,2.67
2018-07-07T09:27:39.757Z,2.17
2018-07-07T09:30:08.240Z,2.30
2018-07-07T09:32:36.764Z,2.30
2018-07-07T09:35:05.522Z,2.40
2018-07-07T09:37:33.972Z,2.87
2018-07-07T09:40:02.780Z,2.63
2018-07-07T09:42:30.934Z,2.87
2018-07-07T09:44:59.381Z,2.70
2018-07-07T09:47:27.927Z,2.97
2018-07-07T09:49:56.376Z,2.30
2018-07-07T09:52:24.908Z,2.80
2018-07-07T09:54:53.328Z,3.13
2018-07-07T09:57:22.016Z,2.77
2018-07-07T09:59:50.615Z,3.00
2018-07-07T10:02:19.131Z,2.67
2018-07-07T10:04:47.610Z,2.60
2018-07-07T10:07:16.048Z,2.60
2018-07-07T10:09:44.384Z,2.97
2018-07-07T10:12:12.966Z,2.90
2018-07-07T10:14:41.358Z,2.70
2018-07-07T10:17:09.977Z,2.67
2018-07-07T10:19:38.155Z,2.50
2018-07-07T10:22:06.851Z,2.70
2018-07-07T10:24:35.258Z,3.00
2018-07-07T10:27:03.826Z,2.93
2018-07-07T10:29:32.253Z,2.87
2018-07-07T10:32:00.781Z,3.00
2018-07-07T10:34:29.220Z,2.70
2018-07-07T10:36:57.702Z,2.80
2018-07-07T10:39:26.211Z,2.70
2018-07-07T10:41:54.671Z,2.80
2018-07-07T10:44:23.534Z,2.60
2018-07-07T10:46:51.937Z,2.90
2018-07-07T10:49:20.334Z,2.60
2018-07-07T10:51:48.914Z,2.40
2018-07-07T10:54:17.518Z,2.80
2018-07-07T10:56:46.116Z,2.80
2018-07-07T10:59:14.599Z,2.60
2018-07-07T11:01:43.073Z,2.70
2018-07-07T11:04:11.557Z,2.37
2018-07-07T11:06:39.996Z,2.83
2018-07-07T11:09:08.624Z,2.73
2018-07-07T11:11:37.114Z,2.50
2018-07-07T11:14:05.921Z,2.40
2018-07-07T11:16:34.429Z,2.63
2018-07-07T11:19:02.924Z,2.80
2018-07-07T11:21:31.483Z,2.40
2018-07-07T11:23:59.983Z,2.40
2018-07-07T11:26:28.441Z,2.53
2018-07-07T11:28:56.967Z,2.50
2018-07-07T11:31:25.496Z,2.37
2018-07-07T11:33:54.154Z,2.30
2018-07-07T11:36:22.646Z,2.40
2018-07-07T11:38:51.049Z,2.30
2018-07-07T11:41:21.128Z,2.50
2018-07-07T11:43:50.377Z,2.80
2018-07-07T11:46:18.799Z,2.40
2018-07-07T11:48:47.296Z,2.80
2018-07-07T11:51:15.811Z,2.73
2018-07-07T11:53:44.818Z,2.37
2018-07-07T11:56:13.298Z,2.50
2018-07-07T11:58:41.515Z,2.47
2018-07-07T12:01:10.088Z,2.70
2018-07-07T12:03:38.522Z,2.20
2018-07-07T12:06:06.702Z,2.30
2018-07-07T12:08:35.081Z,2.40
2018-07-07T12:11:03.269Z,2.27
2018-07-07T12:13:31.879Z,2.30
2018-07-07T12:16:00.331Z,2.07
2018-07-07T12:18:28.792Z,2.17
2018-07-07T12:20:57.234Z,2.20
2018-07-07T12:23:25.661Z,2.30
2018-07-07T12:25:54.116Z,2.27
2018-07-07T12:28:22.534Z,2.17
2018-07-07T12:30:51.024Z,2.30
2018-07-07T12:33:19.457Z,2.60
2018-07-07T12:35:47.930Z,2.30
2018-07-07T12:38:16.457Z,2.17
2018-07-07T12:40:44.881Z,2.27
2018-07-07T12:43:13.407Z,2.43
2018-07-07T12:45:42.014Z,2.43
2018-07-07T12:48:10.674Z,2.23
2018-07-07T12:50:40.463Z,1.90
2018-07-07T12:53:09.357Z,2.50
2018-07-07T12:55:37.813Z,2.40
2018-07-07T12:58:06.556Z,2.23
2018-07-07T13:00:35.030Z,2.17
2018-07-07T13:03:03.578Z,2.10
2018-07-07T13:05:32.360Z,2.13
2018-07-07T13:08:00.858Z,2.00
2018-07-07T13:10:29.096Z,2.20
2018-07-07T13:12:57.648Z,1.87
2018-07-07T13:15:26.180Z,2.10
2018-07-07T13:17:54.612Z,2.30
2018-07-07T13:20:23.109Z,2.03
2018-07-07T13:22:51.592Z,2.00
2018-07-07T13:25:20.019Z,2.10
2018-07-07T13:27:48.895Z,2.30
2018-07-07T13:30:17.304Z,2.27
2018-07-07T13:32:45.756Z,2.27
2018-07-07T13:35:14.281Z,2.27
2018-07-07T13:37:42.764Z,2.10
2018-07-07T13:40:11.219Z,1.83
2018-07-07T13:42:39.724Z,2.00
2018-07-07T13:45:08.150Z,2.27
2018-07-07T13:47:36.685Z,2.17
2018-07-07T13:50:05.123Z,2.20
2018-07-07T13:52:33.349Z,2.10
2018-07-07T13:55:01.885Z,2.00
2018-07-07T13:57:30.556Z,2.13
2018-07-07T13:59:59.045Z,1.90
2018-07-07T14:02:27.470Z,1.90
2018-07-07T14:04:56.033Z,2.20
2018-07-07T14:07:24.534Z,1.63
2018-07-07T14:09:52.970Z,1.77
2018-07-07T14:12:21.470Z,2.07
2018-07-07T14:14:49.945Z,1.90
2018-07-07T14:17:18.525Z,2.30
2018-07-07T14:19:47.004Z,1.87
2018-07-07T14:22:15.533Z,1.90
2018-07-07T14:24:44.046Z,1.53
2018-07-07T14:27:12.562Z,1.90
2018-07-07T14:29:40.998Z,1.77
2018-07-07T14:32:09.495Z,1.80
2018-07-07T14:34:37.996Z,1.80
2018-07-07T14:37:06.487Z,2.23
2018-07-07T14:39:57.878Z,2.00
2018-07-07T14:42:47.251Z,2.00
2018-07-07T14:45:17.786Z,1.57
2018-07-07T14:47:47.400Z,1.90
2018-07-07T14:50:16.170Z,1.80
2018-07-07T14:52:45.165Z,2.07
2018-07-07T14:55:14.426Z,2.00
2018-07-07T14:57:43.652Z,1.90
2018-07-07T15:00:16.552Z,1.90
2018-07-07T15:02:45.821Z,1.80
2018-07-07T15:05:14.416Z,1.80
2018-07-07T15:07:43.162Z,1.60
2018-07-07T15:10:12.967Z,2.00
2018-07-07T15:12:41.498Z,2.50
2018-07-07T15:15:12.864Z,2.10
2018-07-07T15:17:42.324Z,2.47
2018-07-07T15:20:10.844Z,2.07
2018-07-07T15:22:39.113Z,1.93
2018-07-07T15:25:08.362Z,1.97
2018-07-07T15:27:46.347Z,1.80
2018-07-07T15:33:02.178Z,1.90
2018-07-07T15:35:30.656Z,1.70
2018-07-07T15:37:59.098Z,1.80
2018-07-07T15:40:27.824Z,1.53
2018-07-07T15:42:56.328Z,1.77
2018-07-07T15:45:25.021Z,2.00
2018-07-07T15:47:53.526Z,1.97
2018-07-07T15:50:22.011Z,1.90
2018-07-07T15:52:50.279Z,1.87
2018-07-07T15:55:18.879Z,1.57
2018-07-07T15:57:47.369Z,1.90
2018-07-07T16:00:15.947Z,1.80
2018-07-07T16:02:44.581Z,2.00
2018-07-07T16:05:13.036Z,1.80
2018-07-07T16:07:41.516Z,2.20
2018-07-07T16:10:10.178Z,2.07
2018-07-07T16:12:38.614Z,2.13
2018-07-07T16:15:07.222Z,2.10
2018-07-07T16:17:35.709Z,1.90
2018-07-07T16:20:04.148Z,2.00
2018-07-07T16:22:32.680Z,1.90
2018-07-07T16:25:01.130Z,1.90
2018-07-07T16:27:29.561Z,2.43
2018-07-07T16:29:57.985Z,2.30
2018-07-07T16:32:26.452Z,2.30
2018-07-07T16:34:54.978Z,2.27
2018-07-07T16:37:23.414Z,2.83
2018-07-07T16:39:51.893Z,2.00
2018-07-07T16:42:21.274Z,2.17
2018-07-07T16:44:49.683Z,2.20
2018-07-07T16:47:19.184Z,2.43
2018-07-07T16:49:47.725Z,2.40
2018-07-07T16:52:17.333Z,2.40
2018-07-07T16:54:45.803Z,2.20
2018-07-07T16:57:16.181Z,1.83
2018-07-07T16:59:44.850Z,2.03
2018-07-07T17:02:13.348Z,1.90
2018-07-07T17:04:41.538Z,2.60
2018-07-07T17:07:10.316Z,3.10
2018-07-07T17:09:38.504Z,3.30
2018-07-07T17:12:06.923Z,2.53
2018-07-07T17:14:35.716Z,2.13
2018-07-07T17:17:04.185Z,2.33
2018-07-07T17:19:32.604Z,2.20
2018-07-07T17:22:01.073Z,2.93
2018-07-07T17:24:30.079Z,2.27
2018-07-07T17:26:58.971Z,2.20
2018-07-07T17:29:27.585Z,2.20
2018-07-07T17:31:56.796Z,2.00
2018-07-07T17:34:25.943Z,2.20
2018-07-07T17:36:54.453Z,2.23
2018-07-07T17:39:23.003Z,1.93
2018-07-07T17:41:51.512Z,2.47
2018-07-07T17:44:22.437Z,2.50
2018-07-07T17:46:50.974Z,2.30
2018-07-07T17:49:19.587Z,2.03
2018-07-07T17:51:47.972Z,1.87
2018-07-07T17:54:17.335Z,2.07
2018-07-07T17:56:45.885Z,2.40
2018-07-07T17:59:14.381Z,2.20
2018-07-07T18:01:42.856Z,2.27
2018-07-07T18:04:11.323Z,2.10
2018-07-07T18:06:39.773Z,2.63
2018-07-07T18:09:08.267Z,2.70
2018-07-07T18:11:37.266Z,2.10
2018-07-07T18:14:05.633Z,2.33
2018-07-07T18:16:34.131Z,2.00
2018-07-07T18:19:02.559Z,2.10
2018-07-07T18:21:31.055Z,2.00
2018-07-07T18:24:02.510Z,2.20
2018-07-07T18:26:31.337Z,2.07
2018-07-07T18:28:59.797Z,2.23
2018-07-07T18:31:28.694Z,2.10
2018-07-07T18:33:56.856Z,1.90
2018-07-07T18:36:25.348Z,2.23
2018-07-07T18:38:53.797Z,2.00
2018-07-07T18:41:22.261Z,2.20
2018-07-07T18:43:50.779Z,2.20
2018-07-07T18:46:19.178Z,1.97
2018-07-07T18:48:47.899Z,2.40
2018-07-07T18:51:16.402Z,1.97
2018-07-07T18:53:45.029Z,2.00
2018-07-07T18:56:13.481Z,2.10
2018-07-07T18:58:41.938Z,2.37
2018-07-07T19:01:11.006Z,2.40
2018-07-07T19:03:39.551Z,2.13
2018-07-07T19:06:07.996Z,2.40
2018-07-07T19:08:36.762Z,2.40
2018-07-07T19:11:05.169Z,2.20
2018-07-07T19:13:33.986Z,2.20
2018-07-07T19:16:02.568Z,2.10
2018-07-07T19:18:31.555Z,2.30
2018-07-07T19:21:05.436Z,2.20
2018-07-07T19:23:39.270Z,2.80
2018-07-07T19:26:13.466Z,2.73
2018-07-07T19:28:41.983Z,2.40
2018-07-07T19:31:10.460Z,2.30
2018-07-07T19:34:46.663Z,2.70
2018-07-07T19:37:16.835Z,2.40
2018-07-07T19:39:46.310Z,2.33
2018-07-07T19:42:15.069Z,3.10
2018-07-07T19:44:43.509Z,2.97
2018-07-07T19:47:12.134Z,2.53
2018-07-07T19:49:41.125Z,3.00
2018-07-07T19:52:10.291Z,3.27
2018-07-07T19:54:38.764Z,2.70
2018-07-07T19:57:07.265Z,2.80
2018-07-07T19:59:35.748Z,3.33
2018-07-07T20:02:04.209Z,3.13
2018-07-07T20:04:32.670Z,2.90
2018-07-07T20:07:01.192Z,3.17
2018-07-07T20:09:29.619Z,3.47
2018-07-07T20:11:58.152Z,3.00
2018-07-07T20:14:27.225Z,3.50
2018-07-07T20:17:06.528Z,3.00
2018-07-07T20:19:51.835Z,3.40
2018-07-07T20:22:20.442Z,3.10
2018-07-07T20:24:48.911Z,3.40
2018-07-07T20:27:22.619Z,3.10
2018-07-07T20:29:51.163Z,3.07
2018-07-07T20:32:25.088Z,2.70
2018-07-07T20:34:53.694Z,3.07
2018-07-07T20:37:22.216Z,3.87
2018-07-07T20:39:50.686Z,3.07
2018-07-07T20:42:19.210Z,3.07
2018-07-07T20:44:47.644Z,3.53
2018-07-07T20:47:16.231Z,3.47
2018-07-07T20:49:44.772Z,3.20
2018-07-07T20:52:13.341Z,3.00
2018-07-07T20:54:41.784Z,3.20
2018-07-07T20:57:10.276Z,3.70
2018-07-07T20:59:38.824Z,3.00
2018-07-07T21:02:07.569Z,3.30
2018-07-07T21:04:36.627Z,3.13
2018-07-07T21:07:05.393Z,3.77
2018-07-07T21:09:33.913Z,3.50
2018-07-07T21:12:02.402Z,3.17
2018-07-07T21:14:30.609Z,3.87
2018-07-07T21:16:59.029Z,3.50
2018-07-07T21:19:27.625Z,3.77
2018-07-07T21:21:56.313Z,3.70
2018-07-07T21:24:24.781Z,3.57
2018-07-07T21:26:53.304Z,3.20
2018-07-07T21:29:21.755Z,3.63
2018-07-07T21:31:50.330Z,3.47
2018-07-07T21:34:19.094Z,3.27
2018-07-07T21:36:47.604Z,3.53
2018-07-07T21:39:16.185Z,3.50
2018-07-07T21:41:44.692Z,3.80
2018-07-07T21:44:13.115Z,3.47
2018-07-07T21:46:41.530Z,3.70
2018-07-07T21:49:10.058Z,3.87
2018-07-07T21:51:38.605Z,3.43
2018-07-07T21:54:07.116Z,3.40
2018-07-07T21:56:35.592Z,3.40
2018-07-07T21:59:09.608Z,3.90
2018-07-07T22:02:04.293Z,3.50
2018-07-07T22:04:38.257Z,3.90
2018-07-07T22:07:13.198Z,4.27
2018-07-07T22:09:42.630Z,3.73
2018-07-07T22:12:11.057Z,3.90
2018-07-07T22:14:39.489Z,3.90
2018-07-07T22:17:07.915Z,4.00
2018-07-07T22:19:36.368Z,3.83
2018-07-07T22:22:06.744Z,3.97
2018-07-07T22:24:35.148Z,3.57
2018-07-07T22:27:04.780Z,3.80
2018-07-07T22:29:33.234Z,4.40
2018-07-07T22:32:03.455Z,4.10
2018-07-07T22:34:35.307Z,4.17
2018-07-07T22:37:03.757Z,4.37
2018-07-07T22:39:37.519Z,4.43
2018-07-07T22:42:08.216Z,4.20
2018-07-07T22:44:37.771Z,4.17
2018-07-07T22:47:06.285Z,4.40
2018-07-07T22:49:34.773Z,4.80
2018-07-07T22:52:03.739Z,4.80
2018-07-07T22:54:32.248Z,4.57
2018-07-07T22:57:00.439Z,4.70
2018-07-07T22:59:29.159Z,4.53
2018-07-07T23:01:57.679Z,4.93
2018-07-07T23:04:26.211Z,4.40
2018-07-07T23:06:54.639Z,4.50
2018-07-07T23:09:23.160Z,5.13
2018-07-07T23:11:51.698Z,4.43
2018-07-07T23:14:20.168Z,4.73
2018-07-07T23:16:48.822Z,4.77
2018-07-07T23:19:17.218Z,5.27
2018-07-07T23:21:46.003Z,5.00
2018-07-07T23:24:14.538Z,5.50
2018-07-07T23:26:43.019Z,5.00
2018-07-07T23:29:11.470Z,5.47
2018-07-07T23:31:39.914Z,5.50
2018-07-07T23:34:08.496Z,5.13
2018-07-07T23:36:37.019Z,5.20
2018-07-07T23:39:06.163Z,4.90
2018-07-07T23:41:34.671Z,5.63
2018-07-07T23:44:03.208Z,6.07
2018-07-07T23:46:31.659Z,5.10
2018-07-07T23:49:00.111Z,5.50
2018-07-07T23:51:28.649Z,5.53
2018-07-07T23:53:57.163Z,5.00
2018-07-07T23:56:25.658Z,5.20
2018-07-07T23:58:54.349Z,4.93
